sensor_id;sensor_type;location;lat;lon;timestamp;P1;durP1;ratioP1;P2;durP2;ratioP2
60714;SDS011;46564;53.096;8.246;2024-02-16T00:00:31;9.75;;;3.10;;
60714;SDS011;46564;53.096;8.246;2024-02-16T00:05:34;11.93;;;3.30;;
60714;SDS011;46564;53.096;8.246;2024-02-16T00:10:36;7.80;;;3.20;;
60714;SDS011;46564;53.096;8.246;2024-02-16T00:15:39;7.95;;;3.13;;
60714;SDS011;46564;53.096;8.246;2024-02-16T00:20:41;7.75;;;3.17;;
60714;SDS011;46564;53.096;8.246;2024-02-16T00:25:43;8.73;;;3.15;;
60714;SDS011;46564;53.096;8.246;2024-02-16T00:30:44;8.82;;;3.30;;
60714;SDS011;46564;53.096;8.246;2024-02-16T00:35:46;9.25;;;3.20;;
60714;SDS011;46564;53.096;8.246;2024-02-16T00:40:48;13.48;;;3.42;;
60714;SDS011;46564;53.096;8.246;2024-02-16T00:45:49;9.10;;;2.70;;
60714;SDS011;46564;53.096;8.246;2024-02-16T00:50:51;5.72;;;2.90;;
60714;SDS011;46564;53.096;8.246;2024-02-16T00:55:52;8.07;;;3.08;;
60714;SDS011;46564;53.096;8.246;2024-02-16T01:00:55;6.63;;;2.53;;
60714;SDS011;46564;53.096;8.246;2024-02-16T01:05:56;9.15;;;2.75;;
60714;SDS011;46564;53.096;8.246;2024-02-16T01:10:58;6.85;;;2.78;;
60714;SDS011;46564;53.096;8.246;2024-02-16T01:16:00;8.95;;;2.58;;
60714;SDS011;46564;53.096;8.246;2024-02-16T01:21:01;6.10;;;2.60;;
60714;SDS011;46564;53.096;8.246;2024-02-16T01:26:03;7.00;;;2.72;;
60714;SDS011;46564;53.096;8.246;2024-02-16T01:31:05;7.30;;;2.67;;
60714;SDS011;46564;53.096;8.246;2024-02-16T01:36:07;7.07;;;3.25;;
60714;SDS011;46564;53.096;8.246;2024-02-16T01:41:09;6.88;;;2.58;;
60714;SDS011;46564;53.096;8.246;2024-02-16T01:46:11;8.07;;;2.50;;
60714;SDS011;46564;53.096;8.246;2024-02-16T01:51:12;14.43;;;2.70;;
60714;SDS011;46564;53.096;8.246;2024-02-16T01:56:14;5.78;;;2.55;;
60714;SDS011;46564;53.096;8.246;2024-02-16T02:01:16;8.95;;;2.30;;
60714;SDS011;46564;53.096;8.246;2024-02-16T02:06:18;8.23;;;2.92;;
60714;SDS011;46564;53.096;8.246;2024-02-16T02:11:19;5.15;;;2.15;;
60714;SDS011;46564;53.096;8.246;2024-02-16T02:16:21;6.10;;;2.38;;
60714;SDS011;46564;53.096;8.246;2024-02-16T02:21:23;8.57;;;2.30;;
60714;SDS011;46564;53.096;8.246;2024-02-16T02:26:24;10.77;;;2.60;;
60714;SDS011;46564;53.096;8.246;2024-02-16T02:31:26;13.52;;;2.70;;
60714;SDS011;46564;53.096;8.246;2024-02-16T02:36:27;10.95;;;3.33;;
60714;SDS011;46564;53.096;8.246;2024-02-16T02:41:29;6.55;;;2.08;;
60714;SDS011;46564;53.096;8.246;2024-02-16T02:46:31;6.68;;;2.28;;
60714;SDS011;46564;53.096;8.246;2024-02-16T02:51:32;8.38;;;2.35;;
60714;SDS011;46564;53.096;8.246;2024-02-16T02:56:34;13.13;;;2.67;;
60714;SDS011;46564;53.096;8.246;2024-02-16T03:01:36;6.00;;;2.30;;
60714;SDS011;46564;53.096;8.246;2024-02-16T03:06:37;8.50;;;2.85;;
60714;SDS011;46564;53.096;8.246;2024-02-16T03:11:39;14.00;;;2.92;;
60714;SDS011;46564;53.096;8.246;2024-02-16T03:16:41;6.85;;;2.15;;
60714;SDS011;46564;53.096;8.246;2024-02-16T03:21:43;10.02;;;2.00;;
60714;SDS011;46564;53.096;8.246;2024-02-16T03:26:47;4.60;;;2.03;;
60714;SDS011;46564;53.096;8.246;2024-02-16T03:31:49;7.57;;;3.00;;
60714;SDS011;46564;53.096;8.246;2024-02-16T03:36:51;8.68;;;2.20;;
60714;SDS011;46564;53.096;8.246;2024-02-16T03:41:52;3.08;;;1.75;;
60714;SDS011;46564;53.096;8.246;2024-02-16T03:46:54;5.10;;;1.95;;
60714;SDS011;46564;53.096;8.246;2024-02-16T03:51:57;6.28;;;2.38;;
60714;SDS011;46564;53.096;8.246;2024-02-16T03:56:58;6.90;;;2.10;;
60714;SDS011;46564;53.096;8.246;2024-02-16T04:02:00;6.35;;;2.30;;
60714;SDS011;46564;53.096;8.246;2024-02-16T04:07:02;8.20;;;2.65;;
60714;SDS011;46564;53.096;8.246;2024-02-16T04:12:04;5.47;;;2.17;;
60714;SDS011;46564;53.096;8.246;2024-02-16T04:17:05;8.60;;;2.47;;
60714;SDS011;46564;53.096;8.246;2024-02-16T04:22:07;8.05;;;2.13;;
60714;SDS011;46564;53.096;8.246;2024-02-16T04:27:09;7.68;;;2.20;;
60714;SDS011;46564;53.096;8.246;2024-02-16T04:32:10;5.65;;;2.33;;
60714;SDS011;46564;53.096;8.246;2024-02-16T04:37:12;6.63;;;2.33;;
60714;SDS011;46564;53.096;8.246;2024-02-16T04:42:14;5.18;;;1.92;;
60714;SDS011;46564;53.096;8.246;2024-02-16T04:47:15;7.93;;;2.17;;
60714;SDS011;46564;53.096;8.246;2024-02-16T04:52:17;4.82;;;2.00;;
60714;SDS011;46564;53.096;8.246;2024-02-16T04:57:18;10.52;;;2.70;;
60714;SDS011;46564;53.096;8.246;2024-02-16T05:02:20;6.10;;;2.08;;
60714;SDS011;46564;53.096;8.246;2024-02-16T05:07:21;8.60;;;2.42;;
60714;SDS011;46564;53.096;8.246;2024-02-16T05:12:24;8.60;;;2.45;;
60714;SDS011;46564;53.096;8.246;2024-02-16T05:17:25;5.15;;;2.22;;
60714;SDS011;46564;53.096;8.246;2024-02-16T05:22:27;5.10;;;2.20;;
60714;SDS011;46564;53.096;8.246;2024-02-16T05:27:28;8.32;;;2.17;;
60714;SDS011;46564;53.096;8.246;2024-02-16T05:32:30;4.93;;;2.38;;
60714;SDS011;46564;53.096;8.246;2024-02-16T05:37:32;8.30;;;2.70;;
60714;SDS011;46564;53.096;8.246;2024-02-16T05:42:33;8.00;;;1.98;;
60714;SDS011;46564;53.096;8.246;2024-02-16T05:47:35;5.57;;;2.33;;
60714;SDS011;46564;53.096;8.246;2024-02-16T05:52:37;6.38;;;2.25;;
60714;SDS011;46564;53.096;8.246;2024-02-16T05:57:39;7.40;;;2.35;;
60714;SDS011;46564;53.096;8.246;2024-02-16T06:02:40;6.95;;;2.17;;
60714;SDS011;46564;53.096;8.246;2024-02-16T06:07:42;7.30;;;2.65;;
60714;SDS011;46564;53.096;8.246;2024-02-16T06:12:43;7.85;;;2.45;;
60714;SDS011;46564;53.096;8.246;2024-02-16T06:17:45;5.85;;;2.17;;
60714;SDS011;46564;53.096;8.246;2024-02-16T06:22:50;4.10;;;1.90;;
60714;SDS011;46564;53.096;8.246;2024-02-16T06:27:51;5.68;;;2.00;;
60714;SDS011;46564;53.096;8.246;2024-02-16T06:32:53;4.68;;;2.35;;
60714;SDS011;46564;53.096;8.246;2024-02-16T06:37:54;6.30;;;2.30;;
60714;SDS011;46564;53.096;8.246;2024-02-16T06:42:56;6.47;;;2.35;;
60714;SDS011;46564;53.096;8.246;2024-02-16T06:47:58;6.75;;;2.30;;
60714;SDS011;46564;53.096;8.246;2024-02-16T06:53:00;6.43;;;2.33;;
60714;SDS011;46564;53.096;8.246;2024-02-16T06:58:01;6.68;;;2.10;;
60714;SDS011;46564;53.096;8.246;2024-02-16T07:03:03;6.03;;;2.53;;
60714;SDS011;46564;53.096;8.246;2024-02-16T07:08:05;7.05;;;2.58;;
60714;SDS011;46564;53.096;8.246;2024-02-16T07:13:07;6.78;;;2.42;;
60714;SDS011;46564;53.096;8.246;2024-02-16T07:18:08;7.05;;;2.25;;
60714;SDS011;46564;53.096;8.246;2024-02-16T07:23:10;5.28;;;2.22;;
60714;SDS011;46564;53.096;8.246;2024-02-16T07:28:11;8.60;;;2.40;;
60714;SDS011;46564;53.096;8.246;2024-02-16T07:33:13;5.45;;;2.45;;
60714;SDS011;46564;53.096;8.246;2024-02-16T07:38:15;6.10;;;2.15;;
60714;SDS011;46564;53.096;8.246;2024-02-16T07:43:16;5.82;;;2.38;;
60714;SDS011;46564;53.096;8.246;2024-02-16T07:48:18;8.65;;;2.50;;
60714;SDS011;46564;53.096;8.246;2024-02-16T07:53:20;5.55;;;2.40;;
60714;SDS011;46564;53.096;8.246;2024-02-16T07:58:22;7.55;;;2.00;;
60714;SDS011;46564;53.096;8.246;2024-02-16T08:03:23;4.18;;;1.88;;
60714;SDS011;46564;53.096;8.246;2024-02-16T08:08:25;12.48;;;2.38;;
60714;SDS011;46564;53.096;8.246;2024-02-16T08:13:26;3.55;;;1.83;;
60714;SDS011;46564;53.096;8.246;2024-02-16T08:18:28;5.88;;;2.15;;
60714;SDS011;46564;53.096;8.246;2024-02-16T08:23:30;9.15;;;2.10;;
60714;SDS011;46564;53.096;8.246;2024-02-16T08:28:33;4.82;;;1.60;;
60714;SDS011;46564;53.096;8.246;2024-02-16T08:33:36;5.63;;;2.05;;
60714;SDS011;46564;53.096;8.246;2024-02-16T08:38:38;3.63;;;1.83;;
60714;SDS011;46564;53.096;8.246;2024-02-16T08:43:43;6.25;;;2.10;;
60714;SDS011;46564;53.096;8.246;2024-02-16T08:48:45;12.13;;;2.95;;
60714;SDS011;46564;53.096;8.246;2024-02-16T08:53:46;5.38;;;1.77;;
60714;SDS011;46564;53.096;8.246;2024-02-16T08:58:48;6.78;;;2.60;;
60714;SDS011;46564;53.096;8.246;2024-02-16T09:03:50;9.75;;;2.05;;
60714;SDS011;46564;53.096;8.246;2024-02-16T09:08:52;5.25;;;2.10;;
60714;SDS011;46564;53.096;8.246;2024-02-16T09:13:53;6.10;;;1.83;;
60714;SDS011;46564;53.096;8.246;2024-02-16T09:18:55;7.68;;;1.90;;
60714;SDS011;46564;53.096;8.246;2024-02-16T09:23:57;6.75;;;1.83;;
60714;SDS011;46564;53.096;8.246;2024-02-16T09:28:58;5.82;;;2.00;;
60714;SDS011;46564;53.096;8.246;2024-02-16T09:34:00;5.30;;;1.73;;
60714;SDS011;46564;53.096;8.246;2024-02-16T09:39:01;4.60;;;1.83;;
60714;SDS011;46564;53.096;8.246;2024-02-16T09:44:03;4.60;;;1.95;;
60714;SDS011;46564;53.096;8.246;2024-02-16T09:49:05;5.55;;;2.10;;
60714;SDS011;46564;53.096;8.246;2024-02-16T09:54:07;8.85;;;2.40;;
60714;SDS011;46564;53.096;8.246;2024-02-16T09:59:08;6.32;;;2.20;;
60714;SDS011;46564;53.096;8.246;2024-02-16T10:04:10;4.22;;;1.90;;
60714;SDS011;46564;53.096;8.246;2024-02-16T10:09:11;7.13;;;2.25;;
60714;SDS011;46564;53.096;8.246;2024-02-16T10:14:23;6.28;;;2.30;;
60714;SDS011;46564;53.096;8.246;2024-02-16T10:19:24;5.40;;;2.20;;
60714;SDS011;46564;53.096;8.246;2024-02-16T10:24:26;7.93;;;2.50;;
60714;SDS011;46564;53.096;8.246;2024-02-16T10:29:28;6.03;;;2.30;;
60714;SDS011;46564;53.096;8.246;2024-02-16T10:34:30;10.48;;;2.80;;
60714;SDS011;46564;53.096;8.246;2024-02-16T10:39:33;6.68;;;2.42;;
60714;SDS011;46564;53.096;8.246;2024-02-16T10:44:35;6.45;;;2.33;;
60714;SDS011;46564;53.096;8.246;2024-02-16T10:49:37;4.78;;;2.40;;
60714;SDS011;46564;53.096;8.246;2024-02-16T10:54:40;9.63;;;3.08;;
60714;SDS011;46564;53.096;8.246;2024-02-16T10:59:44;8.23;;;3.00;;
60714;SDS011;46564;53.096;8.246;2024-02-16T11:04:46;9.52;;;2.83;;
60714;SDS011;46564;53.096;8.246;2024-02-16T11:09:48;8.07;;;2.90;;
60714;SDS011;46564;53.096;8.246;2024-02-16T11:14:51;8.20;;;3.00;;
60714;SDS011;46564;53.096;8.246;2024-02-16T11:19:54;7.43;;;2.95;;
60714;SDS011;46564;53.096;8.246;2024-02-16T11:24:58;9.10;;;2.67;;
60714;SDS011;46564;53.096;8.246;2024-02-16T11:30:02;9.13;;;2.30;;
60714;SDS011;46564;53.096;8.246;2024-02-16T11:35:07;9.70;;;2.88;;
60714;SDS011;46564;53.096;8.246;2024-02-16T11:40:11;9.10;;;3.00;;
60714;SDS011;46564;53.096;8.246;2024-02-16T11:45:13;8.20;;;3.20;;
60714;SDS011;46564;53.096;8.246;2024-02-16T11:50:14;6.07;;;2.80;;
60714;SDS011;46564;53.096;8.246;2024-02-16T11:55:16;7.40;;;2.72;;
60714;SDS011;46564;53.096;8.246;2024-02-16T12:00:18;8.77;;;3.10;;
60714;SDS011;46564;53.096;8.246;2024-02-16T12:05:19;8.90;;;3.53;;
60714;SDS011;46564;53.096;8.246;2024-02-16T12:10:21;6.63;;;2.97;;
60714;SDS011;46564;53.096;8.246;2024-02-16T12:15:22;8.38;;;3.13;;
60714;SDS011;46564;53.096;8.246;2024-02-16T12:20:24;9.45;;;3.45;;
60714;SDS011;46564;53.096;8.246;2024-02-16T12:25:25;6.22;;;2.90;;
60714;SDS011;46564;53.096;8.246;2024-02-16T12:30:27;8.10;;;3.42;;
60714;SDS011;46564;53.096;8.246;2024-02-16T12:35:28;8.75;;;3.72;;
60714;SDS011;46564;53.096;8.246;2024-02-16T12:40:30;10.73;;;3.70;;
60714;SDS011;46564;53.096;8.246;2024-02-16T12:45:31;8.52;;;3.65;;
60714;SDS011;46564;53.096;8.246;2024-02-16T12:50:33;7.70;;;3.58;;
60714;SDS011;46564;53.096;8.246;2024-02-16T12:55:35;10.88;;;3.75;;
60714;SDS011;46564;53.096;8.246;2024-02-16T13:00:36;8.63;;;3.47;;
60714;SDS011;46564;53.096;8.246;2024-02-16T13:05:38;13.23;;;3.95;;
60714;SDS011;46564;53.096;8.246;2024-02-16T13:10:40;11.48;;;5.15;;
60714;SDS011;46564;53.096;8.246;2024-02-16T13:15:41;9.85;;;4.72;;
60714;SDS011;46564;53.096;8.246;2024-02-16T13:20:43;7.78;;;4.07;;
60714;SDS011;46564;53.096;8.246;2024-02-16T13:25:45;13.57;;;5.00;;
60714;SDS011;46564;53.096;8.246;2024-02-16T13:30:46;11.52;;;5.13;;
60714;SDS011;46564;53.096;8.246;2024-02-16T13:35:48;11.38;;;4.95;;
60714;SDS011;46564;53.096;8.246;2024-02-16T13:40:49;11.13;;;4.75;;
60714;SDS011;46564;53.096;8.246;2024-02-16T13:45:52;13.40;;;6.03;;
60714;SDS011;46564;53.096;8.246;2024-02-16T13:50:54;13.93;;;6.45;;
60714;SDS011;46564;53.096;8.246;2024-02-16T13:55:57;14.43;;;7.65;;
60714;SDS011;46564;53.096;8.246;2024-02-16T14:00:59;15.63;;;6.97;;
60714;SDS011;46564;53.096;8.246;2024-02-16T14:06:01;15.55;;;6.78;;
60714;SDS011;46564;53.096;8.246;2024-02-16T14:11:03;11.18;;;5.78;;
60714;SDS011;46564;53.096;8.246;2024-02-16T14:16:05;12.75;;;6.40;;
60714;SDS011;46564;53.096;8.246;2024-02-16T14:21:06;11.85;;;6.10;;
60714;SDS011;46564;53.096;8.246;2024-02-16T14:26:08;14.48;;;6.70;;
60714;SDS011;46564;53.096;8.246;2024-02-16T14:31:09;10.65;;;6.55;;
60714;SDS011;46564;53.096;8.246;2024-02-16T14:36:11;12.20;;;6.65;;
60714;SDS011;46564;53.096;8.246;2024-02-16T14:41:13;11.77;;;6.47;;
60714;SDS011;46564;53.096;8.246;2024-02-16T14:46:14;11.20;;;6.68;;
60714;SDS011;46564;53.096;8.246;2024-02-16T14:51:16;10.43;;;6.07;;
60714;SDS011;46564;53.096;8.246;2024-02-16T14:56:18;9.63;;;5.63;;
60714;SDS011;46564;53.096;8.246;2024-02-16T15:01:19;11.02;;;5.70;;
60714;SDS011;46564;53.096;8.246;2024-02-16T15:06:21;9.85;;;5.43;;
60714;SDS011;46564;53.096;8.246;2024-02-16T15:11:22;9.50;;;4.93;;
60714;SDS011;46564;53.096;8.246;2024-02-16T15:16:24;10.15;;;4.60;;
60714;SDS011;46564;53.096;8.246;2024-02-16T15:21:26;8.80;;;4.75;;
60714;SDS011;46564;53.096;8.246;2024-02-16T15:26:27;8.32;;;3.92;;
60714;SDS011;46564;53.096;8.246;2024-02-16T15:31:32;11.75;;;3.90;;
60714;SDS011;46564;53.096;8.246;2024-02-16T15:36:34;6.60;;;3.30;;
60714;SDS011;46564;53.096;8.246;2024-02-16T15:41:35;6.70;;;2.80;;
60714;SDS011;46564;53.096;8.246;2024-02-16T15:46:37;4.00;;;2.10;;
60714;SDS011;46564;53.096;8.246;2024-02-16T15:51:38;5.47;;;2.55;;
60714;SDS011;46564;53.096;8.246;2024-02-16T15:56:40;5.60;;;2.60;;
60714;SDS011;46564;53.096;8.246;2024-02-16T16:01:41;5.05;;;2.10;;
60714;SDS011;46564;53.096;8.246;2024-02-16T16:06:43;5.07;;;2.33;;
60714;SDS011;46564;53.096;8.246;2024-02-16T16:11:44;4.90;;;2.40;;
60714;SDS011;46564;53.096;8.246;2024-02-16T16:16:46;4.65;;;2.20;;
60714;SDS011;46564;53.096;8.246;2024-02-16T16:21:47;5.95;;;2.83;;
60714;SDS011;46564;53.096;8.246;2024-02-16T16:26:49;5.22;;;2.30;;
60714;SDS011;46564;53.096;8.246;2024-02-16T16:31:51;7.18;;;2.30;;
60714;SDS011;46564;53.096;8.246;2024-02-16T16:36:56;4.88;;;2.55;;
60714;SDS011;46564;53.096;8.246;2024-02-16T16:41:58;5.50;;;2.60;;
60714;SDS011;46564;53.096;8.246;2024-02-16T16:46:59;5.20;;;2.50;;
60714;SDS011;46564;53.096;8.246;2024-02-16T16:52:01;6.70;;;2.75;;
60714;SDS011;46564;53.096;8.246;2024-02-16T16:57:02;5.00;;;2.28;;
60714;SDS011;46564;53.096;8.246;2024-02-16T17:02:04;6.18;;;2.72;;
60714;SDS011;46564;53.096;8.246;2024-02-16T17:07:05;6.72;;;3.08;;
60714;SDS011;46564;53.096;8.246;2024-02-16T17:12:07;7.38;;;3.17;;
60714;SDS011;46564;53.096;8.246;2024-02-16T17:17:09;4.30;;;2.30;;
60714;SDS011;46564;53.096;8.246;2024-02-16T17:22:14;4.90;;;2.25;;
60714;SDS011;46564;53.096;8.246;2024-02-16T17:27:15;6.38;;;2.88;;
60714;SDS011;46564;53.096;8.246;2024-02-16T17:32:17;7.15;;;2.90;;
60714;SDS011;46564;53.096;8.246;2024-02-16T17:37:18;7.20;;;2.67;;
60714;SDS011;46564;53.096;8.246;2024-02-16T17:42:20;4.78;;;2.40;;
60714;SDS011;46564;53.096;8.246;2024-02-16T17:47:22;7.72;;;3.22;;
60714;SDS011;46564;53.096;8.246;2024-02-16T17:52:23;6.55;;;3.08;;
60714;SDS011;46564;53.096;8.246;2024-02-16T17:57:25;5.93;;;3.05;;
60714;SDS011;46564;53.096;8.246;2024-02-16T18:02:27;8.38;;;3.40;;
60714;SDS011;46564;53.096;8.246;2024-02-16T18:07:41;6.47;;;3.25;;
60714;SDS011;46564;53.096;8.246;2024-02-16T18:12:43;8.85;;;4.22;;
60714;SDS011;46564;53.096;8.246;2024-02-16T18:17:44;7.88;;;4.57;;
60714;SDS011;46564;53.096;8.246;2024-02-16T18:22:46;6.68;;;3.50;;
60714;SDS011;46564;53.096;8.246;2024-02-16T18:27:48;7.85;;;3.97;;
60714;SDS011;46564;53.096;8.246;2024-02-16T18:32:49;10.55;;;3.90;;
60714;SDS011;46564;53.096;8.246;2024-02-16T18:37:51;6.10;;;3.38;;
60714;SDS011;46564;53.096;8.246;2024-02-16T18:48:20;7.30;;;3.42;;
60714;SDS011;46564;53.096;8.246;2024-02-16T18:53:22;8.07;;;3.40;;
60714;SDS011;46564;53.096;8.246;2024-02-16T18:58:24;9.00;;;3.70;;
60714;SDS011;46564;53.096;8.246;2024-02-16T19:03:26;8.30;;;3.88;;
60714;SDS011;46564;53.096;8.246;2024-02-16T19:08:28;5.95;;;3.17;;
60714;SDS011;46564;53.096;8.246;2024-02-16T19:13:29;7.82;;;3.47;;
60714;SDS011;46564;53.096;8.246;2024-02-16T19:18:31;8.63;;;3.58;;
60714;SDS011;46564;53.096;8.246;2024-02-16T19:23:33;8.80;;;3.78;;
60714;SDS011;46564;53.096;8.246;2024-02-16T19:28:35;9.52;;;3.70;;
60714;SDS011;46564;53.096;8.246;2024-02-16T19:33:36;7.65;;;3.17;;
60714;SDS011;46564;53.096;8.246;2024-02-16T19:38:39;8.40;;;3.90;;
60714;SDS011;46564;53.096;8.246;2024-02-16T19:43:40;8.07;;;3.92;;
60714;SDS011;46564;53.096;8.246;2024-02-16T19:48:42;7.82;;;3.65;;
60714;SDS011;46564;53.096;8.246;2024-02-16T19:53:43;9.63;;;3.72;;
60714;SDS011;46564;53.096;8.246;2024-02-16T19:58:45;9.57;;;4.15;;
60714;SDS011;46564;53.096;8.246;2024-02-16T20:03:47;7.50;;;3.35;;
60714;SDS011;46564;53.096;8.246;2024-02-16T20:08:48;6.88;;;3.40;;
60714;SDS011;46564;53.096;8.246;2024-02-16T20:13:50;9.57;;;3.65;;
60714;SDS011;46564;53.096;8.246;2024-02-16T20:18:52;7.40;;;3.42;;
60714;SDS011;46564;53.096;8.246;2024-02-16T20:23:53;9.00;;;4.18;;
60714;SDS011;46564;53.096;8.246;2024-02-16T20:28:55;9.40;;;4.43;;
60714;SDS011;46564;53.096;8.246;2024-02-16T20:33:56;11.23;;;4.43;;
60714;SDS011;46564;53.096;8.246;2024-02-16T20:38:58;14.75;;;4.63;;
60714;SDS011;46564;53.096;8.246;2024-02-16T20:44:00;11.48;;;5.18;;
60714;SDS011;46564;53.096;8.246;2024-02-16T20:49:02;13.68;;;5.88;;
60714;SDS011;46564;53.096;8.246;2024-02-16T20:54:03;11.57;;;5.85;;
60714;SDS011;46564;53.096;8.246;2024-02-16T20:59:05;15.00;;;6.18;;
60714;SDS011;46564;53.096;8.246;2024-02-16T21:04:06;17.88;;;6.90;;
60714;SDS011;46564;53.096;8.246;2024-02-16T21:09:08;15.30;;;7.70;;
60714;SDS011;46564;53.096;8.246;2024-02-16T21:14:13;16.92;;;7.60;;
60714;SDS011;46564;53.096;8.246;2024-02-16T21:19:14;17.75;;;8.85;;
60714;SDS011;46564;53.096;8.246;2024-02-16T21:24:16;21.45;;;8.77;;
60714;SDS011;46564;53.096;8.246;2024-02-16T21:29:18;20.02;;;9.73;;
60714;SDS011;46564;53.096;8.246;2024-02-16T21:34:19;25.25;;;13.25;;
60714;SDS011;46564;53.096;8.246;2024-02-16T21:39:21;25.98;;;12.73;;
60714;SDS011;46564;53.096;8.246;2024-02-16T21:44:23;17.50;;;9.20;;
60714;SDS011;46564;53.096;8.246;2024-02-16T21:49:24;17.88;;;8.65;;
60714;SDS011;46564;53.096;8.246;2024-02-16T21:54:26;22.77;;;11.90;;
60714;SDS011;46564;53.096;8.246;2024-02-16T21:59:27;21.98;;;10.85;;
60714;SDS011;46564;53.096;8.246;2024-02-16T22:04:29;13.80;;;7.35;;
60714;SDS011;46564;53.096;8.246;2024-02-16T22:09:30;14.07;;;6.95;;
60714;SDS011;46564;53.096;8.246;2024-02-16T22:14:32;18.85;;;7.68;;
60714;SDS011;46564;53.096;8.246;2024-02-16T22:19:34;17.77;;;8.30;;
60714;SDS011;46564;53.096;8.246;2024-02-16T22:24:35;15.50;;;8.45;;
60714;SDS011;46564;53.096;8.246;2024-02-16T22:29:37;17.40;;;7.72;;
60714;SDS011;46564;53.096;8.246;2024-02-16T22:34:38;15.73;;;5.65;;
60714;SDS011;46564;53.096;8.246;2024-02-16T22:39:40;16.65;;;5.78;;
60714;SDS011;46564;53.096;8.246;2024-02-16T22:44:42;16.88;;;5.45;;
60714;SDS011;46564;53.096;8.246;2024-02-16T22:49:43;12.40;;;6.43;;
60714;SDS011;46564;53.096;8.246;2024-02-16T22:54:45;13.38;;;5.43;;
60714;SDS011;46564;53.096;8.246;2024-02-16T22:59:46;12.77;;;6.75;;
60714;SDS011;46564;53.096;8.246;2024-02-16T23:04:48;14.13;;;5.93;;
60714;SDS011;46564;53.096;8.246;2024-02-16T23:09:49;12.48;;;5.05;;
60714;SDS011;46564;53.096;8.246;2024-02-16T23:14:51;15.77;;;6.97;;
60714;SDS011;46564;53.096;8.246;2024-02-16T23:19:52;18.02;;;7.78;;
60714;SDS011;46564;53.096;8.246;2024-02-16T23:24:54;14.57;;;6.00;;
60714;SDS011;46564;53.096;8.246;2024-02-16T23:29:55;12.88;;;5.63;;
60714;SDS011;46564;53.096;8.246;2024-02-16T23:34:57;12.43;;;5.35;;
60714;SDS011;46564;53.096;8.246;2024-02-16T23:39:58;12.57;;;5.82;;
60714;SDS011;46564;53.096;8.246;2024-02-16T23:45:01;11.88;;;5.38;;
60714;SDS011;46564;53.096;8.246;2024-02-16T23:50:02;13.70;;;6.22;;
60714;SDS011;46564;53.096;8.246;2024-02-16T23:55:04;13.35;;;6.03;;
